sensor_id;sensor_type;location;lat;lon;timestamp;P1;durP1;ratioP1;P2;durP2;ratioP2
40533;SDS011;26233;51.894;10.192;2024-01-15T00:00:23;7.83;;;6.90;;
40533;SDS011;26233;51.894;10.192;2024-01-15T00:02:50;7.67;;;6.97;;
40533;SDS011;26233;51.894;10.192;2024-01-15T00:05:17;8.13;;;7.33;;
40533;SDS011;26233;51.894;10.192;2024-01-15T00:07:45;8.67;;;7.70;;
40533;SDS011;26233;51.894;10.192;2024-01-15T00:10:12;8.37;;;7.50;;
40533;SDS011;26233;51.894;10.192;2024-01-15T00:12:39;8.40;;;7.60;;
40533;SDS011;26233;51.894;10.192;2024-01-15T00:15:07;8.17;;;7.37;;
40533;SDS011;26233;51.894;10.192;2024-01-15T00:17:35;8.80;;;7.90;;
40533;SDS011;26233;51.894;10.192;2024-01-15T00:20:02;8.17;;;7.37;;
40533;SDS011;26233;51.894;10.192;2024-01-15T00:22:31;7.27;;;6.40;;
40533;SDS011;26233;51.894;10.192;2024-01-15T00:24:59;8.30;;;7.50;;
40533;SDS011;26233;51.894;10.192;2024-01-15T00:27:26;7.80;;;6.97;;
40533;SDS011;26233;51.894;10.192;2024-01-15T00:29:54;7.93;;;7.13;;
40533;SDS011;26233;51.894;10.192;2024-01-15T00:32:21;7.87;;;7.07;;
40533;SDS011;26233;51.894;10.192;2024-01-15T00:34:48;8.53;;;6.20;;
40533;SDS011;26233;51.894;10.192;2024-01-15T00:37:15;7.10;;;6.40;;
40533;SDS011;26233;51.894;10.192;2024-01-15T00:39:42;7.07;;;6.37;;
40533;SDS011;26233;51.894;10.192;2024-01-15T00:42:11;6.80;;;6.07;;
40533;SDS011;26233;51.894;10.192;2024-01-15T00:44:38;6.67;;;5.93;;
40533;SDS011;26233;51.894;10.192;2024-01-15T00:47:05;7.37;;;6.67;;
40533;SDS011;26233;51.894;10.192;2024-01-15T00:49:32;6.73;;;5.57;;
40533;SDS011;26233;51.894;10.192;2024-01-15T00:51:59;5.83;;;5.30;;
40533;SDS011;26233;51.894;10.192;2024-01-15T00:54:26;6.87;;;6.17;;
40533;SDS011;26233;51.894;10.192;2024-01-15T00:56:53;6.47;;;5.87;;
40533;SDS011;26233;51.894;10.192;2024-01-15T00:59:22;6.70;;;5.97;;
40533;SDS011;26233;51.894;10.192;2024-01-15T01:01:49;5.60;;;5.10;;
40533;SDS011;26233;51.894;10.192;2024-01-15T01:04:16;5.83;;;5.23;;
40533;SDS011;26233;51.894;10.192;2024-01-15T01:06:43;6.23;;;5.63;;
40533;SDS011;26233;51.894;10.192;2024-01-15T01:09:10;5.93;;;5.43;;
40533;SDS011;26233;51.894;10.192;2024-01-15T01:11:37;5.87;;;5.27;;
40533;SDS011;26233;51.894;10.192;2024-01-15T01:14:04;6.47;;;5.80;;
40533;SDS011;26233;51.894;10.192;2024-01-15T01:16:33;6.00;;;5.40;;
40533;SDS011;26233;51.894;10.192;2024-01-15T01:19:03;6.33;;;5.73;;
40533;SDS011;26233;51.894;10.192;2024-01-15T01:21:31;6.33;;;5.73;;
40533;SDS011;26233;51.894;10.192;2024-01-15T01:23:59;5.70;;;5.10;;
40533;SDS011;26233;51.894;10.192;2024-01-15T01:26:26;6.60;;;5.90;;
40533;SDS011;26233;51.894;10.192;2024-01-15T01:28:53;6.43;;;5.83;;
40533;SDS011;26233;51.894;10.192;2024-01-15T01:31:20;6.53;;;5.93;;
40533;SDS011;26233;51.894;10.192;2024-01-15T01:33:48;6.53;;;5.93;;
40533;SDS011;26233;51.894;10.192;2024-01-15T01:36:15;6.60;;;5.97;;
40533;SDS011;26233;51.894;10.192;2024-01-15T01:38:42;6.50;;;5.80;;
40533;SDS011;26233;51.894;10.192;2024-01-15T01:41:10;6.03;;;5.43;;
40533;SDS011;26233;51.894;10.192;2024-01-15T01:43:37;6.77;;;5.23;;
40533;SDS011;26233;51.894;10.192;2024-01-15T01:46:04;6.60;;;5.03;;
40533;SDS011;26233;51.894;10.192;2024-01-15T01:48:32;5.30;;;4.70;;
40533;SDS011;26233;51.894;10.192;2024-01-15T01:51:02;6.10;;;4.57;;
40533;SDS011;26233;51.894;10.192;2024-01-15T01:53:30;5.27;;;4.40;;
40533;SDS011;26233;51.894;10.192;2024-01-15T01:56:00;5.50;;;4.10;;
40533;SDS011;26233;51.894;10.192;2024-01-15T01:58:28;5.53;;;3.97;;
40533;SDS011;26233;51.894;10.192;2024-01-15T02:00:55;4.50;;;4.07;;
40533;SDS011;26233;51.894;10.192;2024-01-15T02:03:24;3.77;;;3.47;;
40533;SDS011;26233;51.894;10.192;2024-01-15T02:05:51;4.50;;;3.80;;
40533;SDS011;26233;51.894;10.192;2024-01-15T02:08:20;5.03;;;3.77;;
40533;SDS011;26233;51.894;10.192;2024-01-15T02:10:48;4.10;;;3.50;;
40533;SDS011;26233;51.894;10.192;2024-01-15T02:13:15;4.73;;;3.70;;
40533;SDS011;26233;51.894;10.192;2024-01-15T02:15:42;4.07;;;3.57;;
40533;SDS011;26233;51.894;10.192;2024-01-15T02:18:09;4.27;;;3.87;;
40533;SDS011;26233;51.894;10.192;2024-01-15T02:20:36;3.97;;;3.57;;
40533;SDS011;26233;51.894;10.192;2024-01-15T02:23:07;5.07;;;4.43;;
40533;SDS011;26233;51.894;10.192;2024-01-15T02:25:36;7.20;;;6.33;;
40533;SDS011;26233;51.894;10.192;2024-01-15T02:28:06;6.00;;;5.40;;
40533;SDS011;26233;51.894;10.192;2024-01-15T02:30:37;6.10;;;5.40;;
40533;SDS011;26233;51.894;10.192;2024-01-15T02:33:05;5.00;;;4.50;;
40533;SDS011;26233;51.894;10.192;2024-01-15T02:35:32;4.70;;;4.30;;
40533;SDS011;26233;51.894;10.192;2024-01-15T02:38:01;5.83;;;4.83;;
40533;SDS011;26233;51.894;10.192;2024-01-15T02:40:30;5.10;;;4.60;;
40533;SDS011;26233;51.894;10.192;2024-01-15T02:42:57;5.63;;;4.27;;
40533;SDS011;26233;51.894;10.192;2024-01-15T02:45:25;5.20;;;4.43;;
40533;SDS011;26233;51.894;10.192;2024-01-15T02:47:51;6.17;;;5.00;;
40533;SDS011;26233;51.894;10.192;2024-01-15T02:50:18;5.50;;;4.63;;
40533;SDS011;26233;51.894;10.192;2024-01-15T02:52:46;5.33;;;4.30;;
40533;SDS011;26233;51.894;10.192;2024-01-15T02:55:13;5.50;;;4.53;;
40533;SDS011;26233;51.894;10.192;2024-01-15T02:57:41;5.10;;;4.27;;
40533;SDS011;26233;51.894;10.192;2024-01-15T03:00:08;5.07;;;4.17;;
40533;SDS011;26233;51.894;10.192;2024-01-15T03:02:37;5.90;;;4.70;;
40533;SDS011;26233;51.894;10.192;2024-01-15T03:05:08;7.50;;;4.63;;
40533;SDS011;26233;51.894;10.192;2024-01-15T03:07:36;6.57;;;5.33;;
40533;SDS011;26233;51.894;10.192;2024-01-15T03:10:03;5.23;;;4.73;;
40533;SDS011;26233;51.894;10.192;2024-01-15T03:12:32;4.57;;;4.10;;
40533;SDS011;26233;51.894;10.192;2024-01-15T03:15:01;4.27;;;3.77;;
40533;SDS011;26233;51.894;10.192;2024-01-15T03:17:28;4.27;;;3.87;;
40533;SDS011;26233;51.894;10.192;2024-01-15T03:19:55;4.53;;;3.90;;
40533;SDS011;26233;51.894;10.192;2024-01-15T03:22:22;6.80;;;4.23;;
40533;SDS011;26233;51.894;10.192;2024-01-15T03:24:49;5.00;;;3.53;;
40533;SDS011;26233;51.894;10.192;2024-01-15T03:27:16;5.10;;;3.53;;
40533;SDS011;26233;51.894;10.192;2024-01-15T03:29:43;5.57;;;3.43;;
40533;SDS011;26233;51.894;10.192;2024-01-15T03:32:12;4.80;;;3.53;;
40533;SDS011;26233;51.894;10.192;2024-01-15T03:34:40;5.73;;;3.70;;
40533;SDS011;26233;51.894;10.192;2024-01-15T03:37:07;4.53;;;3.50;;
40533;SDS011;26233;51.894;10.192;2024-01-15T03:39:34;3.43;;;3.13;;
40533;SDS011;26233;51.894;10.192;2024-01-15T03:42:02;4.70;;;3.30;;
40533;SDS011;26233;51.894;10.192;2024-01-15T03:44:29;4.53;;;3.13;;
40533;SDS011;26233;51.894;10.192;2024-01-15T03:46:56;3.87;;;3.00;;
40533;SDS011;26233;51.894;10.192;2024-01-15T03:49:25;4.33;;;3.13;;
40533;SDS011;26233;51.894;10.192;2024-01-15T03:51:52;5.17;;;2.83;;
40533;SDS011;26233;51.894;10.192;2024-01-15T03:54:19;5.03;;;3.27;;
40533;SDS011;26233;51.894;10.192;2024-01-15T03:56:46;4.27;;;3.10;;
40533;SDS011;26233;51.894;10.192;2024-01-15T03:59:13;4.40;;;3.10;;
40533;SDS011;26233;51.894;10.192;2024-01-15T04:01:40;3.50;;;2.67;;
40533;SDS011;26233;51.894;10.192;2024-01-15T04:04:07;4.23;;;3.23;;
40533;SDS011;26233;51.894;10.192;2024-01-15T04:06:35;5.03;;;3.20;;
40533;SDS011;26233;51.894;10.192;2024-01-15T04:09:02;4.47;;;3.17;;
40533;SDS011;26233;51.894;10.192;2024-01-15T04:11:29;4.33;;;3.10;;
40533;SDS011;26233;51.894;10.192;2024-01-15T04:13:56;2.87;;;2.53;;
40533;SDS011;26233;51.894;10.192;2024-01-15T04:16:23;4.17;;;3.33;;
40533;SDS011;26233;51.894;10.192;2024-01-15T04:18:50;4.87;;;3.30;;
40533;SDS011;26233;51.894;10.192;2024-01-15T04:21:17;3.40;;;2.90;;
40533;SDS011;26233;51.894;10.192;2024-01-15T04:23:46;3.40;;;3.00;;
40533;SDS011;26233;51.894;10.192;2024-01-15T04:26:13;5.67;;;3.10;;
40533;SDS011;26233;51.894;10.192;2024-01-15T04:28:40;5.53;;;3.50;;
40533;SDS011;26233;51.894;10.192;2024-01-15T04:31:07;4.80;;;3.40;;
40533;SDS011;26233;51.894;10.192;2024-01-15T04:33:34;3.53;;;3.20;;
40533;SDS011;26233;51.894;10.192;2024-01-15T04:36:01;4.97;;;3.83;;
40533;SDS011;26233;51.894;10.192;2024-01-15T04:38:29;6.17;;;4.20;;
40533;SDS011;26233;51.894;10.192;2024-01-15T04:40:58;6.80;;;4.40;;
40533;SDS011;26233;51.894;10.192;2024-01-15T04:43:25;8.00;;;5.43;;
40533;SDS011;26233;51.894;10.192;2024-01-15T04:45:53;9.93;;;6.60;;
40533;SDS011;26233;51.894;10.192;2024-01-15T04:48:20;19.30;;;11.87;;
40533;SDS011;26233;51.894;10.192;2024-01-15T04:50:47;13.97;;;9.00;;
40533;SDS011;26233;51.894;10.192;2024-01-15T04:53:15;18.83;;;10.93;;
40533;SDS011;26233;51.894;10.192;2024-01-15T04:55:42;22.10;;;13.73;;
40533;SDS011;26233;51.894;10.192;2024-01-15T04:58:10;12.77;;;8.40;;
40533;SDS011;26233;51.894;10.192;2024-01-15T05:00:37;13.83;;;7.70;;
40533;SDS011;26233;51.894;10.192;2024-01-15T05:03:04;9.23;;;6.17;;
40533;SDS011;26233;51.894;10.192;2024-01-15T05:05:31;7.00;;;5.13;;
40533;SDS011;26233;51.894;10.192;2024-01-15T05:07:58;8.03;;;5.13;;
40533;SDS011;26233;51.894;10.192;2024-01-15T05:10:25;7.13;;;5.17;;
40533;SDS011;26233;51.894;10.192;2024-01-15T05:12:52;6.13;;;4.57;;
40533;SDS011;26233;51.894;10.192;2024-01-15T05:15:21;6.53;;;4.67;;
40533;SDS011;26233;51.894;10.192;2024-01-15T05:17:48;5.83;;;4.47;;
40533;SDS011;26233;51.894;10.192;2024-01-15T05:20:15;5.13;;;3.67;;
40533;SDS011;26233;51.894;10.192;2024-01-15T05:22:42;4.53;;;3.57;;
40533;SDS011;26233;51.894;10.192;2024-01-15T05:25:09;4.60;;;3.67;;
40533;SDS011;26233;51.894;10.192;2024-01-15T05:27:36;3.93;;;3.47;;
40533;SDS011;26233;51.894;10.192;2024-01-15T05:30:03;5.83;;;4.27;;
40533;SDS011;26233;51.894;10.192;2024-01-15T05:32:33;6.67;;;4.73;;
40533;SDS011;26233;51.894;10.192;2024-01-15T05:35:00;5.47;;;3.70;;
40533;SDS011;26233;51.894;10.192;2024-01-15T05:37:27;6.73;;;4.53;;
40533;SDS011;26233;51.894;10.192;2024-01-15T05:39:54;4.70;;;4.00;;
40533;SDS011;26233;51.894;10.192;2024-01-15T05:42:21;5.00;;;4.50;;
40533;SDS011;26233;51.894;10.192;2024-01-15T05:44:48;5.87;;;4.43;;
40533;SDS011;26233;51.894;10.192;2024-01-15T05:47:15;6.07;;;4.80;;
40533;SDS011;26233;51.894;10.192;2024-01-15T05:49:45;5.63;;;4.43;;
40533;SDS011;26233;51.894;10.192;2024-01-15T05:52:12;5.37;;;4.33;;
40533;SDS011;26233;51.894;10.192;2024-01-15T05:54:39;6.23;;;4.43;;
40533;SDS011;26233;51.894;10.192;2024-01-15T05:57:06;5.63;;;4.93;;
40533;SDS011;26233;51.894;10.192;2024-01-15T05:59:33;5.60;;;4.33;;
40533;SDS011;26233;51.894;10.192;2024-01-15T06:02:01;6.90;;;4.90;;
40533;SDS011;26233;51.894;10.192;2024-01-15T06:04:28;4.73;;;4.20;;
40533;SDS011;26233;51.894;10.192;2024-01-15T06:06:56;7.00;;;4.63;;
40533;SDS011;26233;51.894;10.192;2024-01-15T06:09:23;5.93;;;4.83;;
40533;SDS011;26233;51.894;10.192;2024-01-15T06:11:50;5.47;;;4.03;;
40533;SDS011;26233;51.894;10.192;2024-01-15T06:14:17;6.50;;;4.43;;
40533;SDS011;26233;51.894;10.192;2024-01-15T06:16:44;5.37;;;4.23;;
40533;SDS011;26233;51.894;10.192;2024-01-15T06:19:11;5.30;;;4.23;;
40533;SDS011;26233;51.894;10.192;2024-01-15T06:21:38;7.47;;;4.63;;
40533;SDS011;26233;51.894;10.192;2024-01-15T06:24:07;5.40;;;4.00;;
40533;SDS011;26233;51.894;10.192;2024-01-15T06:26:35;5.60;;;3.93;;
40533;SDS011;26233;51.894;10.192;2024-01-15T06:29:02;4.57;;;3.43;;
40533;SDS011;26233;51.894;10.192;2024-01-15T06:31:29;5.83;;;3.77;;
40533;SDS011;26233;51.894;10.192;2024-01-15T06:33:56;4.83;;;3.67;;
40533;SDS011;26233;51.894;10.192;2024-01-15T06:36:23;5.17;;;3.97;;
40533;SDS011;26233;51.894;10.192;2024-01-15T06:38:50;4.73;;;3.37;;
40533;SDS011;26233;51.894;10.192;2024-01-15T06:41:18;4.83;;;3.60;;
40533;SDS011;26233;51.894;10.192;2024-01-15T06:43:45;4.90;;;3.43;;
40533;SDS011;26233;51.894;10.192;2024-01-15T06:46:12;4.73;;;3.87;;
40533;SDS011;26233;51.894;10.192;2024-01-15T06:48:39;4.27;;;3.13;;
40533;SDS011;26233;51.894;10.192;2024-01-15T06:51:08;6.00;;;3.63;;
40533;SDS011;26233;51.894;10.192;2024-01-15T06:53:35;4.53;;;3.20;;
40533;SDS011;26233;51.894;10.192;2024-01-15T06:56:03;4.73;;;2.97;;
40533;SDS011;26233;51.894;10.192;2024-01-15T06:58:32;5.40;;;3.60;;
40533;SDS011;26233;51.894;10.192;2024-01-15T07:00:59;4.57;;;3.50;;
40533;SDS011;26233;51.894;10.192;2024-01-15T07:03:26;5.20;;;3.60;;
40533;SDS011;26233;51.894;10.192;2024-01-15T07:05:53;5.70;;;4.03;;
40533;SDS011;26233;51.894;10.192;2024-01-15T07:08:20;4.70;;;4.23;;
40533;SDS011;26233;51.894;10.192;2024-01-15T07:10:47;6.77;;;4.90;;
40533;SDS011;26233;51.894;10.192;2024-01-15T07:13:15;8.27;;;6.23;;
40533;SDS011;26233;51.894;10.192;2024-01-15T07:15:44;14.30;;;9.57;;
40533;SDS011;26233;51.894;10.192;2024-01-15T07:18:11;10.70;;;7.77;;
40533;SDS011;26233;51.894;10.192;2024-01-15T07:20:38;8.93;;;7.13;;
40533;SDS011;26233;51.894;10.192;2024-01-15T07:23:05;7.13;;;5.87;;
40533;SDS011;26233;51.894;10.192;2024-01-15T07:25:32;9.40;;;7.20;;
40533;SDS011;26233;51.894;10.192;2024-01-15T07:27:59;6.30;;;5.67;;
40533;SDS011;26233;51.894;10.192;2024-01-15T07:30:26;6.77;;;5.67;;
40533;SDS011;26233;51.894;10.192;2024-01-15T07:32:55;7.50;;;6.70;;
40533;SDS011;26233;51.894;10.192;2024-01-15T07:35:22;11.53;;;8.07;;
40533;SDS011;26233;51.894;10.192;2024-01-15T07:37:49;12.23;;;8.23;;
40533;SDS011;26233;51.894;10.192;2024-01-15T07:40:16;7.53;;;6.57;;
40533;SDS011;26233;51.894;10.192;2024-01-15T07:42:43;8.00;;;6.67;;
40533;SDS011;26233;51.894;10.192;2024-01-15T07:45:10;7.27;;;6.07;;
40533;SDS011;26233;51.894;10.192;2024-01-15T07:47:37;6.37;;;5.73;;
40533;SDS011;26233;51.894;10.192;2024-01-15T07:50:06;6.10;;;5.47;;
40533;SDS011;26233;51.894;10.192;2024-01-15T07:52:33;5.57;;;5.07;;
40533;SDS011;26233;51.894;10.192;2024-01-15T07:55:00;4.40;;;4.00;;
40533;SDS011;26233;51.894;10.192;2024-01-15T07:57:28;4.90;;;4.40;;
40533;SDS011;26233;51.894;10.192;2024-01-15T07:59:56;3.90;;;3.60;;
40533;SDS011;26233;51.894;10.192;2024-01-15T08:02:23;5.00;;;4.03;;
40533;SDS011;26233;51.894;10.192;2024-01-15T08:04:50;5.33;;;4.00;;
40533;SDS011;26233;51.894;10.192;2024-01-15T08:07:18;4.40;;;3.50;;
40533;SDS011;26233;51.894;10.192;2024-01-15T08:09:45;4.17;;;3.57;;
40533;SDS011;26233;51.894;10.192;2024-01-15T08:12:14;3.67;;;3.37;;
40533;SDS011;26233;51.894;10.192;2024-01-15T08:14:41;3.60;;;3.30;;
40533;SDS011;26233;51.894;10.192;2024-01-15T08:17:08;4.20;;;3.80;;
40533;SDS011;26233;51.894;10.192;2024-01-15T08:19:35;5.13;;;4.10;;
40533;SDS011;26233;51.894;10.192;2024-01-15T08:22:02;3.90;;;3.20;;
40533;SDS011;26233;51.894;10.192;2024-01-15T08:24:30;4.53;;;3.83;;
40533;SDS011;26233;51.894;10.192;2024-01-15T08:26:57;4.07;;;3.67;;
40533;SDS011;26233;51.894;10.192;2024-01-15T08:29:24;5.33;;;3.57;;
40533;SDS011;26233;51.894;10.192;2024-01-15T08:31:51;3.77;;;3.20;;
40533;SDS011;26233;51.894;10.192;2024-01-15T08:34:18;3.67;;;3.37;;
40533;SDS011;26233;51.894;10.192;2024-01-15T08:36:45;4.00;;;3.50;;
40533;SDS011;26233;51.894;10.192;2024-01-15T08:39:13;4.63;;;4.00;;
40533;SDS011;26233;51.894;10.192;2024-01-15T08:41:41;4.10;;;3.70;;
40533;SDS011;26233;51.894;10.192;2024-01-15T08:44:08;3.87;;;3.47;;
40533;SDS011;26233;51.894;10.192;2024-01-15T08:46:35;4.53;;;3.57;;
40533;SDS011;26233;51.894;10.192;2024-01-15T08:49:02;4.40;;;3.47;;
40533;SDS011;26233;51.894;10.192;2024-01-15T08:51:29;4.57;;;3.90;;
40533;SDS011;26233;51.894;10.192;2024-01-15T08:53:56;4.03;;;3.63;;
40533;SDS011;26233;51.894;10.192;2024-01-15T08:56:24;4.27;;;3.87;;
40533;SDS011;26233;51.894;10.192;2024-01-15T08:58:53;4.13;;;3.73;;
40533;SDS011;26233;51.894;10.192;2024-01-15T09:01:20;4.37;;;3.50;;
40533;SDS011;26233;51.894;10.192;2024-01-15T09:03:48;3.93;;;3.53;;
40533;SDS011;26233;51.894;10.192;2024-01-15T09:06:15;4.07;;;3.67;;
40533;SDS011;26233;51.894;10.192;2024-01-15T09:08:42;3.23;;;2.73;;
40533;SDS011;26233;51.894;10.192;2024-01-15T09:11:09;3.47;;;3.00;;
40533;SDS011;26233;51.894;10.192;2024-01-15T09:13:37;3.50;;;3.20;;
40533;SDS011;26233;51.894;10.192;2024-01-15T09:16:06;3.80;;;3.20;;
40533;SDS011;26233;51.894;10.192;2024-01-15T09:18:33;3.53;;;3.23;;
40533;SDS011;26233;51.894;10.192;2024-01-15T09:21:01;4.63;;;2.90;;
40533;SDS011;26233;51.894;10.192;2024-01-15T09:23:30;3.83;;;3.30;;
40533;SDS011;26233;51.894;10.192;2024-01-15T09:25:57;3.20;;;2.73;;
40533;SDS011;26233;51.894;10.192;2024-01-15T09:28:24;3.63;;;3.23;;
40533;SDS011;26233;51.894;10.192;2024-01-15T09:30:51;3.13;;;2.87;;
40533;SDS011;26233;51.894;10.192;2024-01-15T09:33:19;4.10;;;3.30;;
40533;SDS011;26233;51.894;10.192;2024-01-15T09:35:46;3.73;;;3.33;;
40533;SDS011;26233;51.894;10.192;2024-01-15T09:38:13;3.37;;;3.00;;
40533;SDS011;26233;51.894;10.192;2024-01-15T09:40:42;3.30;;;3.00;;
40533;SDS011;26233;51.894;10.192;2024-01-15T09:43:12;3.30;;;3.00;;
40533;SDS011;26233;51.894;10.192;2024-01-15T09:45:40;3.03;;;2.73;;
40533;SDS011;26233;51.894;10.192;2024-01-15T09:48:08;3.27;;;2.80;;
40533;SDS011;26233;51.894;10.192;2024-01-15T09:50:37;2.90;;;2.53;;
40533;SDS011;26233;51.894;10.192;2024-01-15T09:53:04;3.23;;;2.93;;
40533;SDS011;26233;51.894;10.192;2024-01-15T09:55:32;4.03;;;3.50;;
40533;SDS011;26233;51.894;10.192;2024-01-15T09:57:59;3.73;;;3.13;;
40533;SDS011;26233;51.894;10.192;2024-01-15T10:00:28;3.80;;;3.30;;
40533;SDS011;26233;51.894;10.192;2024-01-15T10:02:56;3.00;;;2.70;;
40533;SDS011;26233;51.894;10.192;2024-01-15T10:05:25;3.17;;;2.50;;
40533;SDS011;26233;51.894;10.192;2024-01-15T10:07:54;3.30;;;2.40;;
40533;SDS011;26233;51.894;10.192;2024-01-15T10:10:22;2.27;;;2.10;;
40533;SDS011;26233;51.894;10.192;2024-01-15T10:12:50;2.40;;;2.10;;
40533;SDS011;26233;51.894;10.192;2024-01-15T10:15:17;2.30;;;2.10;;
40533;SDS011;26233;51.894;10.192;2024-01-15T10:17:44;2.50;;;1.87;;
40533;SDS011;26233;51.894;10.192;2024-01-15T10:20:11;2.30;;;2.10;;
40533;SDS011;26233;51.894;10.192;2024-01-15T10:22:39;2.70;;;2.03;;
40533;SDS011;26233;51.894;10.192;2024-01-15T10:25:11;3.93;;;2.10;;
40533;SDS011;26233;51.894;10.192;2024-01-15T10:27:39;2.50;;;2.27;;
40533;SDS011;26233;51.894;10.192;2024-01-15T10:30:07;2.13;;;1.93;;
40533;SDS011;26233;51.894;10.192;2024-01-15T10:32:35;3.13;;;2.30;;
40533;SDS011;26233;51.894;10.192;2024-01-15T10:35:03;2.50;;;1.93;;
40533;SDS011;26233;51.894;10.192;2024-01-15T10:37:32;2.83;;;2.23;;
40533;SDS011;26233;51.894;10.192;2024-01-15T10:40:01;2.37;;;2.17;;
40533;SDS011;26233;51.894;10.192;2024-01-15T10:42:32;3.87;;;2.27;;
40533;SDS011;26233;51.894;10.192;2024-01-15T10:44:59;2.27;;;2.00;;
40533;SDS011;26233;51.894;10.192;2024-01-15T10:47:26;3.17;;;2.37;;
40533;SDS011;26233;51.894;10.192;2024-01-15T10:49:54;3.67;;;2.20;;
40533;SDS011;26233;51.894;10.192;2024-01-15T10:52:22;2.70;;;2.20;;
40533;SDS011;26233;51.894;10.192;2024-01-15T10:54:49;2.83;;;2.00;;
40533;SDS011;26233;51.894;10.192;2024-01-15T10:57:17;2.13;;;1.93;;
40533;SDS011;26233;51.894;10.192;2024-01-15T10:59:48;2.70;;;2.50;;
40533;SDS011;26233;51.894;10.192;2024-01-15T11:02:15;2.60;;;2.40;;
40533;SDS011;26233;51.894;10.192;2024-01-15T11:04:42;2.57;;;2.37;;
40533;SDS011;26233;51.894;10.192;2024-01-15T11:07:09;2.90;;;2.50;;
40533;SDS011;26233;51.894;10.192;2024-01-15T11:09:37;3.17;;;2.43;;
40533;SDS011;26233;51.894;10.192;2024-01-15T11:12:09;2.50;;;2.30;;
40533;SDS011;26233;51.894;10.192;2024-01-15T11:14:38;2.63;;;2.43;;
40533;SDS011;26233;51.894;10.192;2024-01-15T11:17:10;2.53;;;2.33;;
40533;SDS011;26233;51.894;10.192;2024-01-15T11:19:38;2.37;;;2.17;;
40533;SDS011;26233;51.894;10.192;2024-01-15T11:22:09;2.70;;;2.50;;
40533;SDS011;26233;51.894;10.192;2024-01-15T11:24:57;2.60;;;2.40;;
40533;SDS011;26233;51.894;10.192;2024-01-15T11:27:39;2.40;;;2.20;;
40533;SDS011;26233;51.894;10.192;2024-01-15T11:30:07;2.50;;;2.30;;
40533;SDS011;26233;51.894;10.192;2024-01-15T11:32:37;2.70;;;2.50;;
40533;SDS011;26233;51.894;10.192;2024-01-15T11:35:06;2.47;;;2.27;;
40533;SDS011;26233;51.894;10.192;2024-01-15T11:40:36;2.83;;;2.63;;
40533;SDS011;26233;51.894;10.192;2024-01-15T11:43:04;2.70;;;2.40;;
40533;SDS011;26233;51.894;10.192;2024-01-15T11:45:34;2.63;;;2.20;;
40533;SDS011;26233;51.894;10.192;2024-01-15T11:48:10;2.60;;;2.10;;
40533;SDS011;26233;51.894;10.192;2024-01-15T11:50:40;2.20;;;1.83;;
40533;SDS011;26233;51.894;10.192;2024-01-15T11:53:13;2.37;;;2.00;;
40533;SDS011;26233;51.894;10.192;2024-01-15T11:55:45;2.40;;;2.20;;
40533;SDS011;26233;51.894;10.192;2024-01-15T11:58:13;2.57;;;2.20;;
40533;SDS011;26233;51.894;10.192;2024-01-15T12:00:43;2.40;;;2.20;;
40533;SDS011;26233;51.894;10.192;2024-01-15T12:03:12;2.20;;;2.00;;
40533;SDS011;26233;51.894;10.192;2024-01-15T12:05:39;2.20;;;2.00;;
40533;SDS011;26233;51.894;10.192;2024-01-15T12:08:08;3.03;;;2.30;;
40533;SDS011;26233;51.894;10.192;2024-01-15T12:10:36;2.30;;;2.03;;
40533;SDS011;26233;51.894;10.192;2024-01-15T12:13:05;2.07;;;1.87;;
40533;SDS011;26233;51.894;10.192;2024-01-15T12:15:37;2.47;;;2.03;;
40533;SDS011;26233;51.894;10.192;2024-01-15T12:18:07;2.40;;;1.90;;
40533;SDS011;26233;51.894;10.192;2024-01-15T12:20:36;2.33;;;2.13;;
40533;SDS011;26233;51.894;10.192;2024-01-15T12:23:03;2.73;;;1.80;;
40533;SDS011;26233;51.894;10.192;2024-01-15T12:25:31;2.30;;;2.10;;
40533;SDS011;26233;51.894;10.192;2024-01-15T12:27:59;3.30;;;2.37;;
40533;SDS011;26233;51.894;10.192;2024-01-15T12:30:27;3.90;;;2.50;;
40533;SDS011;26233;51.894;10.192;2024-01-15T12:32:56;3.13;;;2.40;;
40533;SDS011;26233;51.894;10.192;2024-01-15T12:35:24;2.90;;;2.67;;
40533;SDS011;26233;51.894;10.192;2024-01-15T12:37:53;3.13;;;2.70;;
40533;SDS011;26233;51.894;10.192;2024-01-15T12:40:21;3.93;;;2.80;;
40533;SDS011;26233;51.894;10.192;2024-01-15T12:42:50;5.13;;;2.80;;
40533;SDS011;26233;51.894;10.192;2024-01-15T12:45:17;3.93;;;2.53;;
40533;SDS011;26233;51.894;10.192;2024-01-15T12:47:44;2.90;;;2.50;;
40533;SDS011;26233;51.894;10.192;2024-01-15T12:50:12;2.97;;;2.00;;
40533;SDS011;26233;51.894;10.192;2024-01-15T12:52:40;3.53;;;2.17;;
40533;SDS011;26233;51.894;10.192;2024-01-15T12:55:10;2.67;;;2.07;;
40533;SDS011;26233;51.894;10.192;2024-01-15T12:57:37;2.50;;;2.10;;
40533;SDS011;26233;51.894;10.192;2024-01-15T13:00:05;3.77;;;2.00;;
40533;SDS011;26233;51.894;10.192;2024-01-15T13:02:37;4.17;;;2.00;;
40533;SDS011;26233;51.894;10.192;2024-01-15T13:05:05;2.17;;;1.97;;
40533;SDS011;26233;51.894;10.192;2024-01-15T13:07:33;2.80;;;2.13;;
40533;SDS011;26233;51.894;10.192;2024-01-15T13:10:00;1.90;;;1.70;;
40533;SDS011;26233;51.894;10.192;2024-01-15T13:12:29;2.63;;;1.97;;
40533;SDS011;26233;51.894;10.192;2024-01-15T13:14:57;2.23;;;1.87;;
40533;SDS011;26233;51.894;10.192;2024-01-15T13:17:24;2.20;;;2.00;;
40533;SDS011;26233;51.894;10.192;2024-01-15T13:19:51;2.30;;;2.03;;
40533;SDS011;26233;51.894;10.192;2024-01-15T13:22:18;2.60;;;1.87;;
40533;SDS011;26233;51.894;10.192;2024-01-15T13:24:45;3.23;;;1.97;;
40533;SDS011;26233;51.894;10.192;2024-01-15T13:27:12;2.20;;;2.00;;
40533;SDS011;26233;51.894;10.192;2024-01-15T13:29:41;2.23;;;1.90;;
40533;SDS011;26233;51.894;10.192;2024-01-15T13:32:08;2.30;;;2.07;;
40533;SDS011;26233;51.894;10.192;2024-01-15T13:34:37;3.70;;;2.10;;
40533;SDS011;26233;51.894;10.192;2024-01-15T13:37:04;2.50;;;2.00;;
40533;SDS011;26233;51.894;10.192;2024-01-15T13:39:34;3.77;;;2.37;;
40533;SDS011;26233;51.894;10.192;2024-01-15T13:42:02;2.30;;;1.80;;
40533;SDS011;26233;51.894;10.192;2024-01-15T13:44:29;2.90;;;1.80;;
40533;SDS011;26233;51.894;10.192;2024-01-15T13:46:58;2.70;;;2.00;;
40533;SDS011;26233;51.894;10.192;2024-01-15T13:49:25;2.20;;;2.00;;
40533;SDS011;26233;51.894;10.192;2024-01-15T13:51:52;2.63;;;1.80;;
40533;SDS011;26233;51.894;10.192;2024-01-15T13:54:19;1.97;;;1.73;;
40533;SDS011;26233;51.894;10.192;2024-01-15T13:56:46;2.40;;;2.00;;
40533;SDS011;26233;51.894;10.192;2024-01-15T13:59:14;4.93;;;4.23;;
40533;SDS011;26233;51.894;10.192;2024-01-15T14:01:42;5.23;;;3.87;;
40533;SDS011;26233;51.894;10.192;2024-01-15T14:04:10;4.10;;;3.57;;
40533;SDS011;26233;51.894;10.192;2024-01-15T14:06:37;7.60;;;4.83;;
40533;SDS011;26233;51.894;10.192;2024-01-15T14:09:05;4.63;;;3.80;;
40533;SDS011;26233;51.894;10.192;2024-01-15T14:11:35;5.67;;;4.50;;
40533;SDS011;26233;51.894;10.192;2024-01-15T14:14:02;3.87;;;3.20;;
40533;SDS011;26233;51.894;10.192;2024-01-15T14:16:29;4.90;;;3.60;;
40533;SDS011;26233;51.894;10.192;2024-01-15T14:18:56;2.83;;;2.20;;
40533;SDS011;26233;51.894;10.192;2024-01-15T14:21:25;2.20;;;2.00;;
40533;SDS011;26233;51.894;10.192;2024-01-15T14:23:52;3.30;;;2.10;;
40533;SDS011;26233;51.894;10.192;2024-01-15T14:26:19;3.30;;;2.27;;
40533;SDS011;26233;51.894;10.192;2024-01-15T14:28:46;2.73;;;2.40;;
40533;SDS011;26233;51.894;10.192;2024-01-15T14:31:13;3.33;;;2.30;;
40533;SDS011;26233;51.894;10.192;2024-01-15T14:33:40;2.57;;;2.00;;
40533;SDS011;26233;51.894;10.192;2024-01-15T14:36:07;3.33;;;1.87;;
40533;SDS011;26233;51.894;10.192;2024-01-15T14:38:36;2.27;;;1.90;;